Airfield :
LOGIN :

Register | Disclaimer

   EN    FR    IT 

 










Legend :    VFR   Marginal VFR   IFR   Intensive IFR   Very Intensive IFR
Visi :
Ceiling :
>= 8 km
>= 3000ft
5 to 8 km
1000 to 3000 ft
1500m to 5 km
500 to 1000 ft
800 to 1500m
200 to 500 ft
< 800m
< 200 ft
Symbols :   Thunderstorms  Fog  Heavy snow  Heavy precipitations  Wind > 20 kt
SIGMETs :     Misc.  Thunderstorms  Icing  Turbulence  Mountain Waves  Volcanic Ashes






- Airport Elevation : 1947 ft
- IATA code : OBF


EDMO - Oberpfaffenhofen

CURRENT METAR :
  • 112020Z AUTO 23007KT 9999 // BKN044/// OVC150/// 02/M03 Q1008

EXPIRED METARs :
  • 111950Z AUTO 24006KT 9999 // FEW045/// OVC150/// 01/M03 Q1008
  • 111920Z AUTO 23007KT 9999 // FEW047/// OVC150/// 00/M02 Q1008
  • 111850Z AUTO 21005KT 9999 // OVC150/// M00/M02 Q1008
  • 111820Z AUTO 26002KT 9999 // BKN150/// OVC170/// 00/M02 Q1008
  • 111750Z 18004KT CAVOK M01/M02 Q1008

TAF TAF EDMO
Valid from the 11 at 18:00 until the 12 at 03:00 UTC


111700Z 1118/1203 23006KT 9999 SCT030
TEMPO 1123/1203 4000 -RASN BKN012
PROB30
TEMPO 1201/1203 2000 SN BKN006



MET'MAP, your aeronautical weather chart ! - Copyright ORBIFLY December 2007 - Disclaimer

ORBIFLY MET'MAP TEAM :

Programming & Development : Alexandra Zaïnal
Concept & original design : Baudouin d'Aumeries
Assistance for programming : Marc-Olivier Méhu
Technical & hardware support : Manuel Goepfert

Contact : metmap@orbifly.com




SOURCES & CREDITS :

   NOAA